Crown Point, Vermont
Current Conditions -  °F | °C
As of 5:55 AM on Friday 28 Nov 2014 (Local Time) from K6B0 Reporting Station
Light Snow Light Snow  
Wind Chill: -5°   Ceiling: 3700
Heat Index: -5°   Visibility: 4mi
Dew Point: -5°   Wind: 0mph
Humidity: 100%   Direction: NA
Pressure: 30.05"   Gusts: NA
Location:  44.0804°N, 73.3324°W
Report Text: K6B0 281055Z AUTO 00000KT 4SM -SN SCT015 BKN037 OVC044 M05/M05 A3005 RMK AO2 T10521052
Loading
Personal Weather Stations






























Interactive Weather Map New forecast layout! Learn more

10-Day Weather Forecast

Advertisements
Track Severe Weather on mobile